aviador You're here:

KELN Decoded Metar

ELLENSBURG in WA, USA
Report Time2017-08-23 01:53:00
UTC Time2017-08-23 02:08:11
Flight Rules vfr VFR
Wind320° at 12 kt
W.Decomp.*RWY 29: 11.6 kt HW 2.9 kt RCW
RWY 25: 7.1 kt HW 9.7 kt RCW
W.Rank320° ranks 2
Current wind is below 320° avg. (13.1)
Visibility9999 m
Phenomena:N/A
Clouds:N/A
Expected CloudBase > 7,600 ft AGL from Temp-Dew spread
CeilingNone
Temp30°C (ISA +18)
Dew Point11°C (31% RH)
Heat Index28.8°C
AAT26.0°C
QNH1013 hPa
Density Alt3,983 ft
Elevation1,703 ft
Report Wrong Elevation
Raw Report
KELN 230153Z AUTO 32012KT 10SM CLR 30/11 A2992 RMK AO2 SLP122
T03000106=

Extra information for KELN:More info

Metar Taf Metar & Taf Last 4 Metars F.Rules Stats Wind Profile Meteogram Temp Stats Airport Information Weather charts Add Link Nearby VenuesMetar ALERT Operation Metar Decoded Social comments

AIRNAV info for KELN